Shreveport, LA (71136)

12:15 AM CDT on October 01, 2016 (GMT -0500)
Southern Hills | | Change Station

Elev 187 ft 32.42 °N, 93.78 °W | Updated 1 minute ago

Partly Cloudy
Partly Cloudy
59.3 °F
Feels Like 59.3 °F
N
0.0
Wind Variable Wind from NNW
Gusts 0.0 mph

Today
High -- | Low -- °F
--% Chance of Precip.
Yesterday
High -- | Low -- °F
Precip. -- in
Pressure 30.07 in
Visibility 10.0 miles
Clouds Few 28000 ft
Dew Point 56 °F
Humidity 88%
Rainfall 0.00 in
Snow Depth Not available.
7:09 AM 6:59 PM
New Moon, 0% visible
METAR KSHV 010456Z 00000KT 10SM FEW280 16/13 A3008 RMK AO2 SLP182 T01610133
Pressure 30.07 in
Visibility 10.0 miles
Clouds Few 28000 ft
Dew Point 56 °F
Humidity 88%
Rainfall 0.00 in
Snow Depth Not available.
7:09 AM 6:59 PM
New Moon, 0% visible
METAR KSHV 010456Z 00000KT 10SM FEW280 16/13 A3008 RMK AO2 SLP182 T01610133

10-Day Weather Forecast

Almanac

Astronomy

Oct. 01, 2016 Rise Set
Actual Time
Civil Twilight
Nautical Twilight
Astronomical Twilight
Moon
Length of Visible Light
Length of Day
Tomorrow will be .
, % of the Moon is Illuminated

Today's Extremes

State Highs State Lows

Community

WunderPhotos

Upload Photos

1,942,894 photos uploaded!

WunderBlog® & News

Nearby

Air Quality

  Air Quality AQ Index Pollutant
Not available.

Snow Depth

Station Depth Elevation

Earthquake Activity

City Distance Mag. Time & Date
Minimum magnitude displayed is 2.5.

Coastal Water Temperatures

Place Temperature

Stations

Nearby Weather Stations

Station Location Temp. Windchill Dew Point Humidity Wind Precip. Elev Updated Type
                   

Watches & Warnings

There are currently no watches in effect.